sensor_id;sensor_type;location;lat;lon;timestamp;P1;durP1;ratioP1;P2;durP2;ratioP2
30036;SDS011;36325;51.512;-0.382;2022-09-12T00:01:05;27.35;;;15.70;;
30036;SDS011;36325;51.512;-0.382;2022-09-12T00:03:36;28.65;;;16.83;;
30036;SDS011;36325;51.512;-0.382;2022-09-12T00:06:08;26.00;;;16.02;;
30036;SDS011;36325;51.512;-0.382;2022-09-12T00:08:48;23.08;;;14.95;;
30036;SDS011;36325;51.512;-0.382;2022-09-12T00:11:15;30.02;;;16.27;;
30036;SDS011;36325;51.512;-0.382;2022-09-12T00:13:43;28.20;;;16.17;;
30036;SDS011;36325;51.512;-0.382;2022-09-12T00:16:19;28.00;;;16.23;;
30036;SDS011;36325;51.512;-0.382;2022-09-12T00:18:48;24.75;;;16.02;;
30036;SDS011;36325;51.512;-0.382;2022-09-12T00:21:16;25.60;;;15.80;;
30036;SDS011;36325;51.512;-0.382;2022-09-12T00:23:45;26.48;;;16.40;;
30036;SDS011;36325;51.512;-0.382;2022-09-12T00:26:13;31.33;;;17.20;;
30036;SDS011;36325;51.512;-0.382;2022-09-12T00:28:40;29.75;;;17.63;;
30036;SDS011;36325;51.512;-0.382;2022-09-12T00:31:10;29.65;;;16.80;;
30036;SDS011;36325;51.512;-0.382;2022-09-12T00:33:42;26.02;;;15.63;;
30036;SDS011;36325;51.512;-0.382;2022-09-12T00:36:15;28.15;;;17.35;;
30036;SDS011;36325;51.512;-0.382;2022-09-12T00:38:44;28.80;;;16.45;;
30036;SDS011;36325;51.512;-0.382;2022-09-12T00:41:15;37.35;;;16.92;;
30036;SDS011;36325;51.512;-0.382;2022-09-12T00:43:46;33.45;;;18.13;;
30036;SDS011;36325;51.512;-0.382;2022-09-12T00:49:14;31.98;;;16.70;;
30036;SDS011;36325;51.512;-0.382;2022-09-12T00:51:51;35.15;;;16.13;;
30036;SDS011;36325;51.512;-0.382;2022-09-12T00:54:33;29.05;;;16.45;;
30036;SDS011;36325;51.512;-0.382;2022-09-12T00:57:06;35.25;;;17.58;;
30036;SDS011;36325;51.512;-0.382;2022-09-12T00:59:39;25.20;;;16.73;;
30036;SDS011;36325;51.512;-0.382;2022-09-12T01:02:10;33.38;;;16.27;;
30036;SDS011;36325;51.512;-0.382;2022-09-12T01:04:38;28.25;;;16.40;;
30036;SDS011;36325;51.512;-0.382;2022-09-12T01:07:06;26.63;;;16.58;;
30036;SDS011;36325;51.512;-0.382;2022-09-12T01:09:35;27.88;;;16.65;;
30036;SDS011;36325;51.512;-0.382;2022-09-12T01:12:04;29.45;;;16.65;;
30036;SDS011;36325;51.512;-0.382;2022-09-12T01:14:32;29.30;;;16.45;;
30036;SDS011;36325;51.512;-0.382;2022-09-12T01:17:01;34.90;;;19.70;;
30036;SDS011;36325;51.512;-0.382;2022-09-12T01:28:28;30.40;;;20.25;;
30036;SDS011;36325;51.512;-0.382;2022-09-12T01:36:36;38.10;;;21.02;;
30036;SDS011;36325;51.512;-0.382;2022-09-12T01:44:25;42.00;;;21.47;;
30036;SDS011;36325;51.512;-0.382;2022-09-12T01:53:02;39.03;;;22.40;;
30036;SDS011;36325;51.512;-0.382;2022-09-12T01:55:37;38.42;;;23.23;;
30036;SDS011;36325;51.512;-0.382;2022-09-12T01:58:28;41.97;;;23.02;;
30036;SDS011;36325;51.512;-0.382;2022-09-12T02:03:42;40.08;;;22.85;;
30036;SDS011;36325;51.512;-0.382;2022-09-12T02:06:29;45.15;;;23.17;;
30036;SDS011;36325;51.512;-0.382;2022-09-12T02:09:25;34.03;;;21.92;;
30036;SDS011;36325;51.512;-0.382;2022-09-12T02:12:01;45.55;;;23.27;;
30036;SDS011;36325;51.512;-0.382;2022-09-12T02:14:33;38.72;;;22.08;;
30036;SDS011;36325;51.512;-0.382;2022-09-12T02:17:06;41.78;;;21.95;;
30036;SDS011;36325;51.512;-0.382;2022-09-12T02:19:40;45.67;;;22.60;;
30036;SDS011;36325;51.512;-0.382;2022-09-12T02:22:14;39.03;;;22.92;;
30036;SDS011;36325;51.512;-0.382;2022-09-12T02:24:45;37.30;;;22.55;;
30036;SDS011;36325;51.512;-0.382;2022-09-12T02:27:17;40.60;;;22.95;;
30036;SDS011;36325;51.512;-0.382;2022-09-12T02:29:49;39.13;;;21.60;;
30036;SDS011;36325;51.512;-0.382;2022-09-12T02:32:37;41.60;;;22.88;;
30036;SDS011;36325;51.512;-0.382;2022-09-12T02:37:59;40.17;;;21.88;;
30036;SDS011;36325;51.512;-0.382;2022-09-12T02:40:33;37.30;;;22.67;;
30036;SDS011;36325;51.512;-0.382;2022-09-12T02:43:02;42.85;;;20.52;;
30036;SDS011;36325;51.512;-0.382;2022-09-12T02:45:32;33.17;;;20.08;;
30036;SDS011;36325;51.512;-0.382;2022-09-12T02:48:08;37.00;;;19.55;;
30036;SDS011;36325;51.512;-0.382;2022-09-12T02:50:39;38.13;;;21.83;;
30036;SDS011;36325;51.512;-0.382;2022-09-12T02:53:07;33.08;;;20.40;;
30036;SDS011;36325;51.512;-0.382;2022-09-12T02:55:39;35.53;;;20.27;;
30036;SDS011;36325;51.512;-0.382;2022-09-12T02:58:12;36.97;;;21.55;;
30036;SDS011;36325;51.512;-0.382;2022-09-12T03:00:52;39.60;;;22.10;;
30036;SDS011;36325;51.512;-0.382;2022-09-12T03:03:48;37.88;;;20.70;;
30036;SDS011;36325;51.512;-0.382;2022-09-12T03:06:39;44.60;;;22.15;;
30036;SDS011;36325;51.512;-0.382;2022-09-12T03:20:43;41.20;;;22.58;;
30036;SDS011;36325;51.512;-0.382;2022-09-12T03:23:30;44.30;;;22.27;;
30036;SDS011;36325;51.512;-0.382;2022-09-12T03:26:12;34.45;;;21.75;;
30036;SDS011;36325;51.512;-0.382;2022-09-12T03:28:46;38.60;;;21.30;;
30036;SDS011;36325;51.512;-0.382;2022-09-12T03:31:15;37.33;;;20.65;;
30036;SDS011;36325;51.512;-0.382;2022-09-12T03:33:44;34.10;;;20.38;;
30036;SDS011;36325;51.512;-0.382;2022-09-12T03:36:15;35.30;;;21.42;;
30036;SDS011;36325;51.512;-0.382;2022-09-12T03:38:46;40.10;;;21.17;;
30036;SDS011;36325;51.512;-0.382;2022-09-12T03:41:13;35.30;;;20.92;;
30036;SDS011;36325;51.512;-0.382;2022-09-12T03:43:41;37.85;;;19.50;;
30036;SDS011;36325;51.512;-0.382;2022-09-12T03:46:08;34.92;;;20.10;;
30036;SDS011;36325;51.512;-0.382;2022-09-12T03:48:35;30.17;;;18.40;;
30036;SDS011;36325;51.512;-0.382;2022-09-12T03:51:04;31.20;;;18.42;;
30036;SDS011;36325;51.512;-0.382;2022-09-12T03:53:33;30.90;;;19.13;;
30036;SDS011;36325;51.512;-0.382;2022-09-12T03:56:04;31.75;;;18.38;;
30036;SDS011;36325;51.512;-0.382;2022-09-12T03:58:37;37.70;;;19.52;;
30036;SDS011;36325;51.512;-0.382;2022-09-12T04:01:06;33.60;;;18.55;;
30036;SDS011;36325;51.512;-0.382;2022-09-12T04:03:39;31.27;;;19.13;;
30036;SDS011;36325;51.512;-0.382;2022-09-12T04:06:07;36.72;;;19.23;;
30036;SDS011;36325;51.512;-0.382;2022-09-12T04:08:37;47.08;;;20.48;;
30036;SDS011;36325;51.512;-0.382;2022-09-12T04:11:05;30.25;;;18.75;;
30036;SDS011;36325;51.512;-0.382;2022-09-12T04:13:36;34.70;;;18.83;;
30036;SDS011;36325;51.512;-0.382;2022-09-12T04:16:04;38.25;;;20.50;;
30036;SDS011;36325;51.512;-0.382;2022-09-12T04:18:33;34.25;;;19.67;;
30036;SDS011;36325;51.512;-0.382;2022-09-12T04:21:04;35.65;;;19.83;;
30036;SDS011;36325;51.512;-0.382;2022-09-12T04:23:38;35.83;;;19.23;;
30036;SDS011;36325;51.512;-0.382;2022-09-12T04:26:08;29.05;;;18.02;;
30036;SDS011;36325;51.512;-0.382;2022-09-12T04:28:36;28.90;;;18.98;;
30036;SDS011;36325;51.512;-0.382;2022-09-12T04:31:05;37.33;;;19.33;;
30036;SDS011;36325;51.512;-0.382;2022-09-12T04:33:35;29.27;;;18.65;;
30036;SDS011;36325;51.512;-0.382;2022-09-12T04:36:06;39.10;;;19.85;;
30036;SDS011;36325;51.512;-0.382;2022-09-12T04:38:36;33.20;;;19.20;;
30036;SDS011;36325;51.512;-0.382;2022-09-12T04:41:09;31.52;;;18.52;;
30036;SDS011;36325;51.512;-0.382;2022-09-12T04:43:41;32.97;;;18.73;;
30036;SDS011;36325;51.512;-0.382;2022-09-12T04:46:10;34.00;;;18.00;;
30036;SDS011;36325;51.512;-0.382;2022-09-12T04:48:39;31.48;;;18.13;;
30036;SDS011;36325;51.512;-0.382;2022-09-12T04:51:14;32.72;;;18.25;;
30036;SDS011;36325;51.512;-0.382;2022-09-12T04:53:46;31.55;;;17.98;;
30036;SDS011;36325;51.512;-0.382;2022-09-12T04:56:18;28.25;;;17.92;;
30036;SDS011;36325;51.512;-0.382;2022-09-12T04:58:46;27.83;;;17.92;;
30036;SDS011;36325;51.512;-0.382;2022-09-12T05:01:15;25.45;;;16.80;;
30036;SDS011;36325;51.512;-0.382;2022-09-12T05:03:44;28.27;;;17.20;;
30036;SDS011;36325;51.512;-0.382;2022-09-12T05:06:15;37.78;;;16.98;;
30036;SDS011;36325;51.512;-0.382;2022-09-12T05:08:45;27.60;;;17.55;;
30036;SDS011;36325;51.512;-0.382;2022-09-12T05:11:19;28.48;;;17.08;;
30036;SDS011;36325;51.512;-0.382;2022-09-12T05:14:06;28.05;;;17.48;;
30036;SDS011;36325;51.512;-0.382;2022-09-12T05:16:34;30.83;;;17.13;;
30036;SDS011;36325;51.512;-0.382;2022-09-12T05:19:01;30.35;;;17.70;;
30036;SDS011;36325;51.512;-0.382;2022-09-12T05:21:28;29.08;;;16.35;;
30036;SDS011;36325;51.512;-0.382;2022-09-12T05:23:56;25.95;;;15.98;;
30036;SDS011;36325;51.512;-0.382;2022-09-12T05:26:25;22.92;;;15.50;;
30036;SDS011;36325;51.512;-0.382;2022-09-12T05:28:53;34.30;;;17.10;;
30036;SDS011;36325;51.512;-0.382;2022-09-12T05:31:22;29.20;;;16.27;;
30036;SDS011;36325;51.512;-0.382;2022-09-12T05:33:51;23.60;;;15.27;;
30036;SDS011;36325;51.512;-0.382;2022-09-12T05:36:23;28.50;;;16.42;;
30036;SDS011;36325;51.512;-0.382;2022-09-12T05:38:52;26.25;;;15.32;;
30036;SDS011;36325;51.512;-0.382;2022-09-12T05:41:24;25.73;;;16.10;;
30036;SDS011;36325;51.512;-0.382;2022-09-12T05:44:00;26.70;;;13.48;;
30036;SDS011;36325;51.512;-0.382;2022-09-12T05:46:36;20.23;;;12.68;;
30036;SDS011;36325;51.512;-0.382;2022-09-12T05:49:09;24.08;;;13.95;;
30036;SDS011;36325;51.512;-0.382;2022-09-12T05:51:39;25.02;;;14.38;;
30036;SDS011;36325;51.512;-0.382;2022-09-12T05:54:08;23.58;;;13.98;;
30036;SDS011;36325;51.512;-0.382;2022-09-12T05:56:38;22.33;;;14.43;;
30036;SDS011;36325;51.512;-0.382;2022-09-12T05:59:13;29.23;;;14.43;;
30036;SDS011;36325;51.512;-0.382;2022-09-12T06:01:43;22.95;;;13.52;;
30036;SDS011;36325;51.512;-0.382;2022-09-12T06:04:11;21.98;;;14.43;;
30036;SDS011;36325;51.512;-0.382;2022-09-12T06:06:39;28.52;;;13.98;;
30036;SDS011;36325;51.512;-0.382;2022-09-12T06:09:08;25.83;;;14.20;;
30036;SDS011;36325;51.512;-0.382;2022-09-12T06:11:36;27.42;;;13.50;;
30036;SDS011;36325;51.512;-0.382;2022-09-12T06:14:06;24.55;;;13.23;;
30036;SDS011;36325;51.512;-0.382;2022-09-12T06:16:36;18.33;;;12.73;;
30036;SDS011;36325;51.512;-0.382;2022-09-12T06:19:15;18.98;;;13.20;;
30036;SDS011;36325;51.512;-0.382;2022-09-12T06:21:46;26.00;;;14.13;;
30036;SDS011;36325;51.512;-0.382;2022-09-12T06:24:17;24.70;;;14.80;;
30036;SDS011;36325;51.512;-0.382;2022-09-12T06:26:46;24.17;;;14.13;;
30036;SDS011;36325;51.512;-0.382;2022-09-12T06:29:14;25.63;;;14.20;;
30036;SDS011;36325;51.512;-0.382;2022-09-12T06:31:42;22.50;;;13.15;;
30036;SDS011;36325;51.512;-0.382;2022-09-12T06:34:11;21.70;;;13.75;;
30036;SDS011;36325;51.512;-0.382;2022-09-12T06:36:44;23.05;;;13.73;;
30036;SDS011;36325;51.512;-0.382;2022-09-12T06:39:18;22.80;;;13.55;;
30036;SDS011;36325;51.512;-0.382;2022-09-12T06:41:49;21.77;;;13.68;;
30036;SDS011;36325;51.512;-0.382;2022-09-12T06:44:31;19.23;;;12.25;;
30036;SDS011;36325;51.512;-0.382;2022-09-12T06:46:58;20.27;;;12.13;;
30036;SDS011;36325;51.512;-0.382;2022-09-12T06:49:25;19.50;;;13.38;;
30036;SDS011;36325;51.512;-0.382;2022-09-12T06:51:52;25.92;;;13.43;;
30036;SDS011;36325;51.512;-0.382;2022-09-12T06:54:19;26.70;;;11.82;;
30036;SDS011;36325;51.512;-0.382;2022-09-12T06:56:47;17.27;;;10.35;;
30036;SDS011;36325;51.512;-0.382;2022-09-12T06:59:14;16.75;;;10.07;;
30036;SDS011;36325;51.512;-0.382;2022-09-12T07:01:41;22.63;;;11.27;;
30036;SDS011;36325;51.512;-0.382;2022-09-12T07:04:08;14.90;;;9.95;;
30036;SDS011;36325;51.512;-0.382;2022-09-12T07:06:37;28.48;;;9.95;;
30036;SDS011;36325;51.512;-0.382;2022-09-12T07:09:06;20.30;;;10.80;;
30036;SDS011;36325;51.512;-0.382;2022-09-12T07:11:37;21.25;;;11.13;;
30036;SDS011;36325;51.512;-0.382;2022-09-12T07:14:06;25.50;;;12.45;;
30036;SDS011;36325;51.512;-0.382;2022-09-12T07:16:34;17.73;;;10.95;;
30036;SDS011;36325;51.512;-0.382;2022-09-12T07:19:02;20.42;;;11.02;;
30036;SDS011;36325;51.512;-0.382;2022-09-12T07:21:31;18.13;;;10.32;;
30036;SDS011;36325;51.512;-0.382;2022-09-12T07:24:01;21.30;;;10.30;;
30036;SDS011;36325;51.512;-0.382;2022-09-12T07:26:29;23.92;;;11.73;;
30036;SDS011;36325;51.512;-0.382;2022-09-12T07:28:57;18.80;;;10.98;;
30036;SDS011;36325;51.512;-0.382;2022-09-12T07:31:44;21.77;;;11.40;;
30036;SDS011;36325;51.512;-0.382;2022-09-12T07:34:11;18.35;;;11.15;;
30036;SDS011;36325;51.512;-0.382;2022-09-12T07:36:39;20.80;;;11.45;;
30036;SDS011;36325;51.512;-0.382;2022-09-12T07:39:06;17.63;;;10.73;;
30036;SDS011;36325;51.512;-0.382;2022-09-12T07:41:34;20.40;;;10.00;;
30036;SDS011;36325;51.512;-0.382;2022-09-12T07:44:02;22.63;;;10.25;;
30036;SDS011;36325;51.512;-0.382;2022-09-12T07:46:30;21.30;;;9.32;;
30036;SDS011;36325;51.512;-0.382;2022-09-12T07:48:59;17.17;;;8.98;;
30036;SDS011;36325;51.512;-0.382;2022-09-12T07:51:28;23.38;;;8.48;;
30036;SDS011;36325;51.512;-0.382;2022-09-12T07:53:57;19.75;;;8.75;;
30036;SDS011;36325;51.512;-0.382;2022-09-12T07:56:25;21.58;;;9.13;;
30036;SDS011;36325;51.512;-0.382;2022-09-12T07:58:56;16.73;;;7.97;;
30036;SDS011;36325;51.512;-0.382;2022-09-12T08:01:24;22.65;;;9.50;;
30036;SDS011;36325;51.512;-0.382;2022-09-12T08:03:53;15.93;;;7.28;;
30036;SDS011;36325;51.512;-0.382;2022-09-12T08:06:22;15.93;;;7.75;;
30036;SDS011;36325;51.512;-0.382;2022-09-12T08:08:51;13.68;;;7.15;;
30036;SDS011;36325;51.512;-0.382;2022-09-12T08:13:50;16.65;;;6.82;;
30036;SDS011;36325;51.512;-0.382;2022-09-12T08:16:25;12.10;;;7.10;;
30036;SDS011;36325;51.512;-0.382;2022-09-12T08:18:55;12.05;;;5.85;;
30036;SDS011;36325;51.512;-0.382;2022-09-12T08:21:24;13.60;;;5.43;;
30036;SDS011;36325;51.512;-0.382;2022-09-12T08:24:00;12.20;;;5.97;;
30036;SDS011;36325;51.512;-0.382;2022-09-12T08:26:29;9.43;;;5.28;;
30036;SDS011;36325;51.512;-0.382;2022-09-12T08:28:56;10.68;;;5.65;;
30036;SDS011;36325;51.512;-0.382;2022-09-12T08:31:24;8.65;;;5.40;;
30036;SDS011;36325;51.512;-0.382;2022-09-12T08:33:56;9.73;;;4.88;;
30036;SDS011;36325;51.512;-0.382;2022-09-12T08:36:24;12.50;;;4.90;;
30036;SDS011;36325;51.512;-0.382;2022-09-12T08:38:54;7.82;;;4.30;;
30036;SDS011;36325;51.512;-0.382;2022-09-12T08:41:42;5.05;;;3.33;;
30036;SDS011;36325;51.512;-0.382;2022-09-12T08:49:58;6.30;;;3.70;;
30036;SDS011;36325;51.512;-0.382;2022-09-12T08:52:29;9.75;;;4.13;;
30036;SDS011;36325;51.512;-0.382;2022-09-12T08:55:12;12.65;;;4.63;;
30036;SDS011;36325;51.512;-0.382;2022-09-12T08:57:50;9.40;;;4.78;;
30036;SDS011;36325;51.512;-0.382;2022-09-12T09:00:18;10.25;;;4.35;;
30036;SDS011;36325;51.512;-0.382;2022-09-12T09:16:34;11.98;;;4.35;;
30036;SDS011;36325;51.512;-0.382;2022-09-12T09:19:08;7.47;;;2.75;;
30036;SDS011;36325;51.512;-0.382;2022-09-12T09:21:50;10.23;;;3.13;;
30036;SDS011;36325;51.512;-0.382;2022-09-12T09:24:24;10.85;;;2.78;;
30036;SDS011;36325;51.512;-0.382;2022-09-12T09:27:04;5.18;;;2.90;;
30036;SDS011;36325;51.512;-0.382;2022-09-12T09:29:58;9.93;;;3.25;;
30036;SDS011;36325;51.512;-0.382;2022-09-12T09:32:27;8.35;;;2.72;;
30036;SDS011;36325;51.512;-0.382;2022-09-12T09:35:16;10.13;;;3.85;;
30036;SDS011;36325;51.512;-0.382;2022-09-12T09:38:38;10.60;;;2.92;;
30036;SDS011;36325;51.512;-0.382;2022-09-12T09:40:46;7.57;;;2.35;;
30036;SDS011;36325;51.512;-0.382;2022-09-12T09:43:46;8.23;;;2.55;;
30036;SDS011;36325;51.512;-0.382;2022-09-12T09:46:13;9.10;;;2.75;;
30036;SDS011;36325;51.512;-0.382;2022-09-12T09:48:45;7.32;;;3.08;;
30036;SDS011;36325;51.512;-0.382;2022-09-12T09:51:28;8.90;;;3.35;;
30036;SDS011;36325;51.512;-0.382;2022-09-12T09:54:03;9.40;;;2.78;;
30036;SDS011;36325;51.512;-0.382;2022-09-12T09:56:48;7.30;;;2.95;;
30036;SDS011;36325;51.512;-0.382;2022-09-12T10:01:47;2.97;;;2.20;;
30036;SDS011;36325;51.512;-0.382;2022-09-12T10:04:21;6.33;;;2.50;;
30036;SDS011;36325;51.512;-0.382;2022-09-12T10:06:54;26.23;;;4.10;;
30036;SDS011;36325;51.512;-0.382;2022-09-12T10:12:18;6.63;;;3.13;;
30036;SDS011;36325;51.512;-0.382;2022-09-12T10:14:58;5.18;;;2.38;;
30036;SDS011;36325;51.512;-0.382;2022-09-12T10:17:27;8.75;;;2.53;;
30036;SDS011;36325;51.512;-0.382;2022-09-12T10:22:54;5.45;;;2.40;;
30036;SDS011;36325;51.512;-0.382;2022-09-12T10:25:23;6.85;;;2.35;;
30036;SDS011;36325;51.512;-0.382;2022-09-12T10:28:00;6.28;;;2.30;;
30036;SDS011;36325;51.512;-0.382;2022-09-12T10:30:28;7.78;;;2.10;;
30036;SDS011;36325;51.512;-0.382;2022-09-12T10:33:03;5.13;;;2.50;;
30036;SDS011;36325;51.512;-0.382;2022-09-12T10:35:44;4.57;;;2.20;;
30036;SDS011;36325;51.512;-0.382;2022-09-12T10:41:03;4.07;;;2.10;;
30036;SDS011;36325;51.512;-0.382;2022-09-12T10:43:37;13.30;;;2.92;;
30036;SDS011;36325;51.512;-0.382;2022-09-12T10:48:45;4.38;;;2.17;;
30036;SDS011;36325;51.512;-0.382;2022-09-12T10:56:27;6.22;;;2.28;;
30036;SDS011;36325;51.512;-0.382;2022-09-12T11:04:57;6.50;;;2.17;;
30036;SDS011;36325;51.512;-0.382;2022-09-12T11:15:50;6.57;;;2.10;;
30036;SDS011;36325;51.512;-0.382;2022-09-12T11:30:07;5.30;;;2.05;;
30036;SDS011;36325;51.512;-0.382;2022-09-12T11:35:31;6.53;;;2.35;;
30036;SDS011;36325;51.512;-0.382;2022-09-12T11:46:21;3.20;;;1.60;;
30036;SDS011;36325;51.512;-0.382;2022-09-12T11:54:47;4.15;;;1.55;;
30036;SDS011;36325;51.512;-0.382;2022-09-12T11:57:28;2.10;;;1.25;;
30036;SDS011;36325;51.512;-0.382;2022-09-12T12:02:43;4.55;;;1.60;;
30036;SDS011;36325;51.512;-0.382;2022-09-12T12:05:25;4.90;;;1.58;;
30036;SDS011;36325;51.512;-0.382;2022-09-12T12:08:00;7.13;;;5.45;;
30036;SDS011;36325;51.512;-0.382;2022-09-12T12:10:33;4.72;;;2.35;;
30036;SDS011;36325;51.512;-0.382;2022-09-12T12:13:16;5.60;;;1.30;;
30036;SDS011;36325;51.512;-0.382;2022-09-12T12:15:55;2.80;;;1.40;;
30036;SDS011;36325;51.512;-0.382;2022-09-12T12:18:26;4.95;;;1.48;;
30036;SDS011;36325;51.512;-0.382;2022-09-12T12:20:55;3.83;;;1.88;;
30036;SDS011;36325;51.512;-0.382;2022-09-12T12:29:10;6.05;;;2.25;;
30036;SDS011;36325;51.512;-0.382;2022-09-12T12:34:40;5.32;;;1.52;;
30036;SDS011;36325;51.512;-0.382;2022-09-12T12:47:44;2.92;;;1.58;;
30036;SDS011;36325;51.512;-0.382;2022-09-12T12:52:49;2.78;;;1.63;;
30036;SDS011;36325;51.512;-0.382;2022-09-12T12:55:24;4.67;;;1.57;;
30036;SDS011;36325;51.512;-0.382;2022-09-12T12:57:57;2.42;;;1.20;;
30036;SDS011;36325;51.512;-0.382;2022-09-12T13:00:30;5.43;;;1.17;;
30036;SDS011;36325;51.512;-0.382;2022-09-12T13:05:48;3.55;;;1.30;;
30036;SDS011;36325;51.512;-0.382;2022-09-12T13:08:31;3.22;;;1.50;;
30036;SDS011;36325;51.512;-0.382;2022-09-12T13:11:13;9.10;;;1.55;;
30036;SDS011;36325;51.512;-0.382;2022-09-12T13:14:06;2.00;;;1.45;;
30036;SDS011;36325;51.512;-0.382;2022-09-12T13:16:57;4.13;;;1.65;;
30036;SDS011;36325;51.512;-0.382;2022-09-12T13:19:29;10.07;;;1.85;;
30036;SDS011;36325;51.512;-0.382;2022-09-12T13:21:59;3.25;;;1.30;;
30036;SDS011;36325;51.512;-0.382;2022-09-12T13:24:44;4.40;;;1.55;;
30036;SDS011;36325;51.512;-0.382;2022-09-12T13:27:21;5.15;;;1.70;;
30036;SDS011;36325;51.512;-0.382;2022-09-12T13:30:07;2.50;;;1.40;;
30036;SDS011;36325;51.512;-0.382;2022-09-12T13:32:40;5.13;;;1.30;;
30036;SDS011;36325;51.512;-0.382;2022-09-12T13:35:12;2.13;;;1.25;;
30036;SDS011;36325;51.512;-0.382;2022-09-12T13:38:35;2.00;;;1.35;;
30036;SDS011;36325;51.512;-0.382;2022-09-12T13:40:56;4.30;;;1.42;;
30036;SDS011;36325;51.512;-0.382;2022-09-12T13:43:47;5.45;;;1.50;;
30036;SDS011;36325;51.512;-0.382;2022-09-12T13:46:16;4.43;;;1.88;;
30036;SDS011;36325;51.512;-0.382;2022-09-12T13:48:52;6.75;;;1.75;;
30036;SDS011;36325;51.512;-0.382;2022-09-12T13:51:23;7.20;;;1.67;;
30036;SDS011;36325;51.512;-0.382;2022-09-12T13:53:56;7.93;;;0.98;;
30036;SDS011;36325;51.512;-0.382;2022-09-12T13:56:27;2.10;;;1.35;;
30036;SDS011;36325;51.512;-0.382;2022-09-12T13:58:58;6.43;;;1.65;;
30036;SDS011;36325;51.512;-0.382;2022-09-12T14:04:19;4.22;;;1.60;;
30036;SDS011;36325;51.512;-0.382;2022-09-12T14:07:09;3.38;;;1.52;;
30036;SDS011;36325;51.512;-0.382;2022-09-12T14:09:56;3.22;;;1.48;;
30036;SDS011;36325;51.512;-0.382;2022-09-12T14:12:35;4.97;;;1.45;;
30036;SDS011;36325;51.512;-0.382;2022-09-12T14:15:06;3.88;;;1.00;;
30036;SDS011;36325;51.512;-0.382;2022-09-12T14:17:46;2.65;;;1.40;;
30036;SDS011;36325;51.512;-0.382;2022-09-12T14:20:17;3.35;;;1.30;;
30036;SDS011;36325;51.512;-0.382;2022-09-12T14:22:48;2.97;;;1.80;;
30036;SDS011;36325;51.512;-0.382;2022-09-12T14:29:21;4.15;;;1.70;;
30036;SDS011;36325;51.512;-0.382;2022-09-12T14:32:02;3.40;;;1.95;;
30036;SDS011;36325;51.512;-0.382;2022-09-12T14:34:31;2.90;;;1.70;;
30036;SDS011;36325;51.512;-0.382;2022-09-12T14:36:58;5.60;;;1.40;;
30036;SDS011;36325;51.512;-0.382;2022-09-12T14:39:41;7.30;;;2.17;;
30036;SDS011;36325;51.512;-0.382;2022-09-12T14:44:49;6.70;;;1.80;;
30036;SDS011;36325;51.512;-0.382;2022-09-12T14:47:24;4.83;;;1.60;;
30036;SDS011;36325;51.512;-0.382;2022-09-12T14:49:54;3.90;;;1.60;;
30036;SDS011;36325;51.512;-0.382;2022-09-12T14:52:23;2.35;;;1.35;;
30036;SDS011;36325;51.512;-0.382;2022-09-12T14:57:41;4.95;;;1.70;;
30036;SDS011;36325;51.512;-0.382;2022-09-12T15:02:37;8.20;;;4.03;;
30036;SDS011;36325;51.512;-0.382;2022-09-12T15:10:24;2.47;;;1.58;;
30036;SDS011;36325;51.512;-0.382;2022-09-12T15:15:37;6.80;;;1.80;;
30036;SDS011;36325;51.512;-0.382;2022-09-12T15:18:05;4.75;;;1.90;;
30036;SDS011;36325;51.512;-0.382;2022-09-12T15:20:36;4.97;;;2.00;;
30036;SDS011;36325;51.512;-0.382;2022-09-12T15:23:09;5.57;;;1.58;;
30036;SDS011;36325;51.512;-0.382;2022-09-12T15:25:46;2.53;;;1.30;;
30036;SDS011;36325;51.512;-0.382;2022-09-12T15:28:17;5.00;;;1.77;;
30036;SDS011;36325;51.512;-0.382;2022-09-12T15:30:46;1.98;;;1.52;;
30036;SDS011;36325;51.512;-0.382;2022-09-12T15:33:16;3.75;;;1.45;;
30036;SDS011;36325;51.512;-0.382;2022-09-12T15:35:45;6.47;;;1.98;;
30036;SDS011;36325;51.512;-0.382;2022-09-12T15:38:12;2.75;;;1.92;;
30036;SDS011;36325;51.512;-0.382;2022-09-12T15:40:40;4.97;;;1.75;;
30036;SDS011;36325;51.512;-0.382;2022-09-12T15:43:08;3.50;;;2.00;;
30036;SDS011;36325;51.512;-0.382;2022-09-12T15:45:40;4.50;;;1.95;;
30036;SDS011;36325;51.512;-0.382;2022-09-12T15:48:08;4.72;;;2.10;;
30036;SDS011;36325;51.512;-0.382;2022-09-12T15:50:35;7.35;;;2.30;;
30036;SDS011;36325;51.512;-0.382;2022-09-12T15:53:02;4.85;;;1.83;;
30036;SDS011;36325;51.512;-0.382;2022-09-12T15:55:30;4.35;;;1.38;;
30036;SDS011;36325;51.512;-0.382;2022-09-12T15:57:57;3.50;;;1.40;;
30036;SDS011;36325;51.512;-0.382;2022-09-12T16:00:30;4.45;;;1.80;;
30036;SDS011;36325;51.512;-0.382;2022-09-12T16:02:57;4.82;;;1.65;;
30036;SDS011;36325;51.512;-0.382;2022-09-12T16:05:24;4.78;;;1.90;;
30036;SDS011;36325;51.512;-0.382;2022-09-12T16:07:52;4.32;;;1.42;;
30036;SDS011;36325;51.512;-0.382;2022-09-12T16:10:21;5.43;;;1.70;;
30036;SDS011;36325;51.512;-0.382;2022-09-12T16:12:51;5.38;;;1.65;;
30036;SDS011;36325;51.512;-0.382;2022-09-12T16:15:19;5.07;;;1.67;;
30036;SDS011;36325;51.512;-0.382;2022-09-12T16:17:48;4.30;;;1.60;;
30036;SDS011;36325;51.512;-0.382;2022-09-12T16:20:16;3.63;;;1.60;;
30036;SDS011;36325;51.512;-0.382;2022-09-12T16:22:44;3.53;;;1.58;;
30036;SDS011;36325;51.512;-0.382;2022-09-12T16:25:11;3.35;;;1.45;;
30036;SDS011;36325;51.512;-0.382;2022-09-12T16:27:39;5.40;;;1.65;;
30036;SDS011;36325;51.512;-0.382;2022-09-12T16:30:06;3.17;;;1.67;;
30036;SDS011;36325;51.512;-0.382;2022-09-12T16:32:35;4.68;;;1.20;;
30036;SDS011;36325;51.512;-0.382;2022-09-12T16:35:02;2.40;;;1.30;;
30036;SDS011;36325;51.512;-0.382;2022-09-12T16:37:30;2.30;;;1.30;;
30036;SDS011;36325;51.512;-0.382;2022-09-12T16:40:00;7.68;;;2.20;;
30036;SDS011;36325;51.512;-0.382;2022-09-12T16:42:31;5.32;;;1.52;;
30036;SDS011;36325;51.512;-0.382;2022-09-12T16:44:58;4.50;;;1.60;;
30036;SDS011;36325;51.512;-0.382;2022-09-12T16:47:25;3.33;;;1.63;;
30036;SDS011;36325;51.512;-0.382;2022-09-12T16:49:53;2.65;;;1.48;;
30036;SDS011;36325;51.512;-0.382;2022-09-12T16:52:20;6.95;;;1.83;;
30036;SDS011;36325;51.512;-0.382;2022-09-12T16:54:47;2.13;;;1.60;;
30036;SDS011;36325;51.512;-0.382;2022-09-12T16:57:14;6.85;;;2.38;;
30036;SDS011;36325;51.512;-0.382;2022-09-12T16:59:42;5.95;;;2.00;;
30036;SDS011;36325;51.512;-0.382;2022-09-12T17:02:11;5.50;;;1.75;;
30036;SDS011;36325;51.512;-0.382;2022-09-12T17:04:40;81.45;;;28.17;;
30036;SDS011;36325;51.512;-0.382;2022-09-12T17:07:07;16.40;;;8.88;;
30036;SDS011;36325;51.512;-0.382;2022-09-12T17:09:35;7.00;;;2.97;;
30036;SDS011;36325;51.512;-0.382;2022-09-12T17:12:02;7.60;;;2.47;;
30036;SDS011;36325;51.512;-0.382;2022-09-12T17:14:29;6.40;;;2.42;;
30036;SDS011;36325;51.512;-0.382;2022-09-12T17:16:57;7.03;;;2.67;;
30036;SDS011;36325;51.512;-0.382;2022-09-12T17:19:25;13.48;;;3.83;;
30036;SDS011;36325;51.512;-0.382;2022-09-12T17:21:55;13.27;;;5.63;;
30036;SDS011;36325;51.512;-0.382;2022-09-12T17:24:23;9.10;;;3.33;;
30036;SDS011;36325;51.512;-0.382;2022-09-12T17:26:51;9.20;;;2.78;;
30036;SDS011;36325;51.512;-0.382;2022-09-12T17:29:19;6.47;;;2.30;;
30036;SDS011;36325;51.512;-0.382;2022-09-12T17:31:46;6.93;;;2.35;;
30036;SDS011;36325;51.512;-0.382;2022-09-12T17:34:13;2.53;;;1.70;;
30036;SDS011;36325;51.512;-0.382;2022-09-12T17:36:42;5.30;;;2.03;;
30036;SDS011;36325;51.512;-0.382;2022-09-12T17:39:10;9.63;;;2.22;;
30036;SDS011;36325;51.512;-0.382;2022-09-12T17:41:38;4.82;;;2.00;;
30036;SDS011;36325;51.512;-0.382;2022-09-12T17:44:07;6.80;;;2.00;;
30036;SDS011;36325;51.512;-0.382;2022-09-12T17:46:37;7.43;;;1.73;;
30036;SDS011;36325;51.512;-0.382;2022-09-12T17:49:06;6.32;;;2.42;;